WetterOnline ( https://www.wetteronline.de )

Wetter aktuell Svratouch

Aktuelles Wetter: Svratouch (740m)

6-stündlich | Neueste Meldungen
Ortszeit Temperatur Wetter
So, 15.12. 19:00 5.6° C leichte Schauer
So, 15.12. 13:00 5.9° C wolkig
So, 15.12. 7:00 0.7° C wolkig
So, 15.12. 1:00 2.0° C leicht bewölkt
Sa, 14.12. 19:00 1.8° C bedeckt
Sa, 14.12. 13:00 -0.3° C leichter Schneefall
Sa, 14.12. 7:00 -1.2° C fast wolkenlos
Sa, 14.12. 1:00 -1.6° C bewölkt
Ortszeit Temperatur Wetter
Mo, 16.12. 0:00 4.9° C leichte Schauer
So, 15.12. 23:00 4.5° C leichte Schauer
So, 15.12. 22:00 4.4° C leichte Schauer
So, 15.12. 21:00 5.1° C leichter Regen
So, 15.12. 20:00 5.1° C leichte Schauer
So, 15.12. 19:00 5.6° C leichte Schauer
Ortszeit Relative Feuchte Sichtweite
So, 15.12. 19:00 93% 13 km
So, 15.12. 13:00 84% 40 km
So, 15.12. 7:00 90% 35 km
So, 15.12. 1:00 78% 35 km
Sa, 14.12. 19:00 81% 35 km
Sa, 14.12. 13:00 99% 1.4 km
Sa, 14.12. 7:00 100% 25 km
Sa, 14.12. 1:00 100% 4.8 km
Ortszeit Relative Feuchte Sichtweite
Mo, 16.12. 0:00 89% 35 km
So, 15.12. 23:00 94% 28 km
So, 15.12. 22:00 98% 13 km
So, 15.12. 21:00 93% 28 km
So, 15.12. 20:00 95% 16 km
So, 15.12. 19:00 93% 13 km
Ortszeit Niederschlagsmenge Niederschlagsart
So, 15.12. 19:00 0.5 l/m2 in 12 Std. -
So, 15.12. 13:00 0.4 l/m2 in 6 Std. Regen
So, 15.12. 7:00 0.1 l/m2 in 12 Std. -
So, 15.12. 1:00 0.1 l/m2 in 6 Std. Regenschauer
Sa, 14.12. 19:00 0.3 l/m2 in 12 Std. Regenschauer
Sa, 14.12. 13:00 0.1 l/m2 in 6 Std. Schnee
Sa, 14.12. 7:00 0.1 l/m2 in 12 Std. -
Sa, 14.12. 1:00 0.1 l/m2 in 6 Std. Schneeschauer
Ortszeit Niederschlagsmenge Niederschlagsart
Mo, 16.12. 0:00 0.0 l/m2 in 1 Std. Schauer
So, 15.12. 23:00 0.0 l/m2 in 1 Std. -
So, 15.12. 22:00 0.0 l/m2 in 1 Std. Regen
So, 15.12. 21:00 0.6 l/m2 in 1 Std. Regenschauer
So, 15.12. 20:00 0.9 l/m2 in 1 Std. Schauer
So, 15.12. 19:00 0.1 l/m2 in 1 Std. -
Ortszeit Stärke Spitze Richtung
km/h Bft. km/h Grad Sektor
So, 15.12. 19:00 11 2 50 340° N
So, 15.12. 13:00 40 6 58 220° SW
So, 15.12. 7:00 22 4 - 210° SW
So, 15.12. 1:00 25 4 72 240° SW
Sa, 14.12. 19:00 50 7 76 280° W
Sa, 14.12. 13:00 43 6 76 200° S
Sa, 14.12. 7:00 22 4 40 220° SW
Sa, 14.12. 1:00 25 4 40 180° S
Ortszeit Stärke Spitze Richtung
km/h Bft. km/h Grad Sektor
Mo, 16.12. 0:00 11 2 - 240° SW
So, 15.12. 23:00 11 2 - 230° SW
So, 15.12. 22:00 14 3 - 220° SW
So, 15.12. 21:00 11 2 - 280° W
So, 15.12. 20:00 14 3 - 270° W
So, 15.12. 19:00 11 2 50 340° N
Ortszeit Untergrenze Bedeckung Gattung
total tief tief mittel hoch
So, 15.12. 19:00 240 m 8/8 8/8 Cu - -
So, 15.12. 13:00 300 m 7/8 5/8 Sc As Ci
So, 15.12. 7:00 1800 m 8/8 8/8 - Ns -
So, 15.12. 1:00 1140 m - 4/8 - - -
Sa, 14.12. 19:00 300 m 8/8 8/8 Cu - -
Sa, 14.12. 13:00 120 m 8/8 8/8 St - -
Sa, 14.12. 7:00 1290 m 2/8 1/8 Sc Ac Ci
Sa, 14.12. 1:00 120 m - 7/8 - - -
Ortszeit Bedeckungsgrad in Achtel und Wolkenuntergrenze
Mo, 16.12. 0:00 8(1290m)
So, 15.12. 23:00 8(1500m)
So, 15.12. 22:00 2(510m) 8(660m)
So, 15.12. 21:00 8(870m)
So, 15.12. 20:00 4(120m) 8(780m)
So, 15.12. 19:00 6(240m) 8(900m)
Ortszeit Stationsdruck (hPa) Tendenz (hPa in 3 Std.)
So, 15.12. 19:00 925 + 3,1
So, 15.12. 13:00 920 + 0,2
So, 15.12. 7:00 921 - 0,2
So, 15.12. 1:00 919 + 1,8
Sa, 14.12. 19:00 915 + 4,1
Sa, 14.12. 13:00 907 - 0,2
Sa, 14.12. 7:00 907 + 0,7
Sa, 14.12. 1:00 905 + 0,7
Ortszeit Stationsdruck (hPa) Tendenz (hPa in 3 Std.)
Mo, 16.12. 0:00 927 + 1,4
So, 15.12. 23:00 927 + 1,2
So, 15.12. 22:00 927 + 1,9
So, 15.12. 21:00 926 + 3,1
So, 15.12. 20:00 926 + 3,6
So, 15.12. 19:00 925 + 3,1
Ortszeit Schneehöhe (cm)
So, 15.12. 19:00 -
So, 15.12. 13:00 -
So, 15.12. 7:00 1
So, 15.12. 1:00 -
Sa, 14.12. 19:00 1
Sa, 14.12. 13:00 -
Sa, 14.12. 7:00 0
Sa, 14.12. 1:00 -
Ortszeit Schneehöhe (cm)
Mo, 16.12. 0:00 -
So, 15.12. 23:00 -
So, 15.12. 22:00 -
So, 15.12. 21:00 -
So, 15.12. 20:00 -
So, 15.12. 19:00 -
Link zu dieser Seite / Seite empfehlen

Das Wetter in ...